Time;durP1;ratioP1;P1;durP2;ratioP2;P2;SDS_P1;SDS_P2;PMS_P1;PMS_P2;Temp;Humidity;BMP_temperature;BMP_pressure;BME280_temperature;BME280_humidity;BME280_pressure;Samples;Min_cycle;Max_cycle;Signal;HPM_P1;HPM_P2
2022/09/22 00:01:22;;;;;;;2.77;2.10;;;5.20;99.90;;;;;;5011474;28;20273;-72
2022/09/22 00:03:51;;;;;;;3.73;3.43;;;5.20;99.90;;;;;;5011626;28;20416;-72
2022/09/22 00:06:19;;;;;;;3.47;2.87;;;5.10;99.90;;;;;;5011581;28;20414;-72
2022/09/22 00:08:50;;;;;;;2.60;2.47;;;5.10;99.90;;;;;;5011622;28;20416;-71
2022/09/22 00:11:22;;;;;;;3.80;2.97;;;5.10;99.90;;;;;;5011505;28;20426;-73
2022/09/22 00:13:52;;;;;;;3.00;2.70;;;5.00;99.90;;;;;;5011323;28;20561;-71
2022/09/22 00:16:29;;;;;;;4.57;3.50;;;5.00;99.90;;;;;;5011515;28;20921;-71
2022/09/22 00:18:55;;;;;;;4.43;3.10;;;4.90;99.90;;;;;;5011619;28;20413;-72
2022/09/22 00:21:23;;;;;;;5.53;3.23;;;4.90;99.90;;;;;;5011371;28;20474;-72
2022/09/22 00:23:49;;;;;;;2.43;2.33;;;4.90;99.90;;;;;;5011610;28;20256;-71
2022/09/22 00:26:18;;;;;;;4.70;3.57;;;4.90;99.90;;;;;;5011781;28;20933;-72
2022/09/22 00:28:46;;;;;;;6.23;2.93;;;4.80;99.90;;;;;;5011698;28;20797;-74
2022/09/22 00:31:17;;;;;;;7.13;2.50;;;4.80;99.90;;;;;;5012722;28;20457;-72
2022/09/22 00:33:45;;;;;;;3.80;3.30;;;4.80;99.90;;;;;;5015305;28;20465;-72
2022/09/22 00:36:11;;;;;;;3.83;3.13;;;4.80;99.90;;;;;;5014953;28;20925;-71
2022/09/22 00:38:37;;;;;;;2.70;2.50;;;4.80;99.90;;;;;;5014850;28;20424;-73
2022/09/22 00:41:04;;;;;;;4.93;2.93;;;4.70;99.90;;;;;;5014770;28;20436;-71
2022/09/22 00:43:35;;;;;;;3.00;2.70;;;4.70;99.90;;;;;;5014656;28;20427;-71
2022/09/22 00:46:15;;;;;;;4.67;3.27;;;4.70;99.90;;;;;;5015058;28;20406;-73
2022/09/22 00:48:49;;;;;;;3.20;2.90;;;4.70;99.90;;;;;;5014701;28;20424;-73
2022/09/22 00:51:19;;;;;;;6.93;3.10;;;4.70;99.90;;;;;;5014711;28;20438;-70
2022/09/22 00:53:45;;;;;;;3.03;2.73;;;4.70;99.90;;;;;;5014504;28;20487;-73
2022/09/22 00:56:19;;;;;;;5.10;3.03;;;4.70;99.90;;;;;;5014543;28;20425;-71
2022/09/22 00:58:53;;;;;;;6.70;4.27;;;4.70;99.90;;;;;;5014589;28;20185;-72
2022/09/22 02:31:58;;;;;;;3.33;2.70;;;3.90;99.90;;;;;;5605962;22;20480;-68
2022/09/22 02:34:24;;;;;;;3.00;2.70;;;3.90;99.90;;;;;;5017963;28;20963;-71
2022/09/22 02:37:07;;;;;;;3.50;3.20;;;3.90;99.90;;;;;;5012320;28;20415;-71
2022/09/22 02:39:41;;;;;;;3.20;3.00;;;3.90;99.90;;;;;;5012601;28;20174;-71
2022/09/22 02:42:15;;;;;;;3.20;2.70;;;4.00;99.90;;;;;;5012358;28;20428;-71
2022/09/22 02:44:44;;;;;;;4.17;3.50;;;4.00;99.90;;;;;;5012424;28;20414;-71
2022/09/22 02:47:16;;;;;;;2.77;2.43;;;3.90;99.90;;;;;;5012496;28;20420;-71
2022/09/22 02:49:42;;;;;;;2.93;2.73;;;3.90;99.90;;;;;;5012499;28;20393;-71
2022/09/22 02:52:11;;;;;;;3.27;2.57;;;3.90;99.90;;;;;;5012060;28;20940;-71
2022/09/22 02:54:38;;;;;;;4.13;3.17;;;3.90;99.90;;;;;;5011524;28;20474;-72
2022/09/22 02:57:04;;;;;;;3.30;3.00;;;4.00;99.90;;;;;;5012264;28;20506;-73
2022/09/22 02:59:30;;;;;;;3.03;2.73;;;3.90;99.90;;;;;;5012263;28;20509;-72
2022/09/22 03:01:55;;;;;;;5.90;3.60;;;3.90;99.90;;;;;;5012126;28;20883;-72
2022/09/22 03:04:21;;;;;;;4.90;3.33;;;3.80;99.90;;;;;;5012076;28;20181;-72
2022/09/22 03:06:46;;;;;;;3.03;2.83;;;3.80;99.90;;;;;;5012318;28;20176;-74
2022/09/22 03:09:15;;;;;;;2.80;2.60;;;3.80;99.90;;;;;;5011986;28;20183;-72
2022/09/22 03:11:41;;;;;;;3.10;2.90;;;3.70;99.90;;;;;;5012225;28;20209;-72
2022/09/22 03:14:06;;;;;;;3.07;2.60;;;3.70;99.90;;;;;;5011537;28;20455;-73
2022/09/22 03:16:32;;;;;;;2.67;2.50;;;3.70;99.90;;;;;;5012168;28;20527;-73
2022/09/22 03:18:57;;;;;;;2.60;2.50;;;3.70;99.90;;;;;;5011985;28;20176;-74
2022/09/22 03:21:23;;;;;;;3.73;3.00;;;3.70;99.90;;;;;;5011865;28;20598;-72
2022/09/22 03:23:48;;;;;;;3.70;3.30;;;3.60;99.90;;;;;;5012169;28;20185;-72
2022/09/22 03:26:14;;;;;;;3.70;3.37;;;3.60;99.90;;;;;;5012159;28;20181;-73
2022/09/22 03:28:39;;;;;;;2.93;2.73;;;3.60;99.90;;;;;;5012879;28;20176;-73
2022/09/22 03:31:05;;;;;;;3.03;2.23;;;3.60;99.90;;;;;;5012041;28;20209;-73
2022/09/22 03:33:30;;;;;;;6.20;3.10;;;3.60;99.90;;;;;;5012172;28;20782;-73
2022/09/22 03:35:56;;;;;;;3.17;2.90;;;3.60;99.90;;;;;;5011865;28;20182;-72
2022/09/22 03:38:21;;;;;;;3.50;3.20;;;3.60;99.90;;;;;;5011815;28;20171;-72
2022/09/22 03:40:51;;;;;;;2.63;2.43;;;3.60;99.90;;;;;;5011671;28;20197;-72
2022/09/22 03:43:17;;;;;;;3.00;2.80;;;3.60;99.90;;;;;;5010450;28;20178;-72
2022/09/22 03:45:43;;;;;;;3.13;2.73;;;3.50;99.90;;;;;;5011794;28;20393;-72
2022/09/22 03:48:08;;;;;;;2.50;2.40;;;3.50;99.90;;;;;;5011736;28;20203;-72
2022/09/22 03:50:34;;;;;;;9.33;2.67;;;3.50;99.90;;;;;;5011916;28;20939;-72
2022/09/22 03:52:59;;;;;;;3.17;2.83;;;3.50;99.90;;;;;;5012202;28;20172;-73
2022/09/22 03:55:25;;;;;;;6.30;3.30;;;3.50;99.90;;;;;;5011698;28;20220;-72
2022/09/22 03:57:50;;;;;;;2.40;2.20;;;3.50;99.90;;;;;;5012006;28;20171;-72
2022/09/22 04:00:16;;;;;;;5.17;3.77;;;3.50;99.90;;;;;;5011746;28;20212;-72
2022/09/22 04:02:42;;;;;;;4.57;3.33;;;3.50;99.90;;;;;;5011708;28;20456;-72
2022/09/22 04:05:08;;;;;;;5.10;3.37;;;3.50;99.90;;;;;;5012839;28;20175;-71
2022/09/22 04:07:34;;;;;;;3.90;2.93;;;3.50;99.90;;;;;;5015809;28;20273;-72
2022/09/22 04:10:00;;;;;;;4.97;2.77;;;3.50;99.90;;;;;;5015514;28;20504;-73
2022/09/22 04:12:26;;;;;;;2.77;2.57;;;3.40;99.90;;;;;;5015573;28;20199;-72
2022/09/22 04:14:52;;;;;;;6.80;2.63;;;3.40;99.90;;;;;;5015534;28;20465;-72
2022/09/22 04:17:19;;;;;;;3.27;2.93;;;3.40;99.90;;;;;;5015530;28;20231;-72
2022/09/22 04:19:45;;;;;;;2.83;2.10;;;3.40;99.90;;;;;;5015557;28;20178;-71
2022/09/22 04:22:11;;;;;;;2.80;2.60;;;3.40;99.90;;;;;;5015202;28;20864;-73
2022/09/22 04:24:37;;;;;;;2.70;2.07;;;3.40;99.90;;;;;;5015515;28;20424;-72
2022/09/22 04:27:03;;;;;;;7.90;2.10;;;3.30;99.90;;;;;;5015196;28;20391;-73
2022/09/22 04:29:28;;;;;;;2.43;2.20;;;3.30;99.90;;;;;;5015395;28;20183;-72
2022/09/22 04:31:54;;;;;;;2.60;2.40;;;3.30;99.90;;;;;;5015065;28;20228;-73
2022/09/22 04:34:19;;;;;;;4.20;3.00;;;3.30;99.90;;;;;;5015026;28;20304;-72
2022/09/22 04:36:45;;;;;;;2.40;2.20;;;3.30;99.90;;;;;;5015316;28;20547;-73
2022/09/22 04:39:10;;;;;;;2.80;2.60;;;3.30;99.90;;;;;;5015020;28;20603;-72
2022/09/22 04:41:36;;;;;;;3.73;2.50;;;3.30;99.90;;;;;;5015083;28;20685;-72
2022/09/22 04:44:01;;;;;;;4.17;3.07;;;3.30;99.90;;;;;;5014908;28;20189;-72
2022/09/22 04:46:27;;;;;;;3.07;2.83;;;3.30;99.90;;;;;;5015197;28;20530;-73
2022/09/22 04:48:53;;;;;;;3.50;2.87;;;3.30;99.90;;;;;;5015469;28;20199;-73
2022/09/22 04:51:18;;;;;;;4.03;2.97;;;3.20;99.90;;;;;;5014906;28;20199;-71
2022/09/22 04:53:44;;;;;;;2.77;2.57;;;3.20;99.90;;;;;;5014725;28;20549;-72
2022/09/22 04:56:09;;;;;;;5.93;3.17;;;3.20;99.90;;;;;;5014748;28;20591;-71
2022/09/22 04:58:35;;;;;;;3.33;2.47;;;3.20;99.90;;;;;;5014875;28;20174;-72
2022/09/22 05:01:04;;;;;;;2.80;2.60;;;3.30;99.90;;;;;;5014636;28;20196;-72
2022/09/22 05:03:30;;;;;;;8.07;2.60;;;3.30;99.90;;;;;;5014509;28;20397;-72
2022/09/22 05:05:56;;;;;;;3.27;2.97;;;3.30;99.90;;;;;;5014730;28;20412;-72
2022/09/22 05:08:21;;;;;;;2.60;2.40;;;3.30;99.90;;;;;;5014433;28;20183;-72
2022/09/22 05:10:47;;;;;;;4.50;3.40;;;3.40;99.90;;;;;;5014209;28;20575;-72
2022/09/22 05:13:13;;;;;;;5.30;3.30;;;3.40;99.90;;;;;;5014486;28;20199;-72
2022/09/22 05:15:40;;;;;;;2.50;2.23;;;3.40;99.90;;;;;;5014328;28;20196;-72
2022/09/22 05:18:06;;;;;;;3.83;2.67;;;3.30;99.90;;;;;;5013508;28;20503;-72
2022/09/22 05:20:31;;;;;;;2.23;2.10;;;3.30;99.90;;;;;;5014206;28;20407;-72
2022/09/22 05:22:57;;;;;;;3.00;2.80;;;3.30;99.90;;;;;;5014064;28;20531;-72
2022/09/22 05:25:23;;;;;;;4.70;3.03;;;3.30;99.90;;;;;;5014060;28;20183;-71
2022/09/22 05:27:50;;;;;;;4.43;3.50;;;3.30;99.90;;;;;;5014280;28;20271;-72
2022/09/22 05:30:17;;;;;;;3.00;2.70;;;3.40;99.90;;;;;;5013898;28;20192;-72
2022/09/22 05:32:44;;;;;;;3.30;2.87;;;3.40;99.90;;;;;;5013972;28;20938;-72
2022/09/22 05:35:11;;;;;;;2.70;2.50;;;3.40;99.90;;;;;;5013734;28;20564;-71
2022/09/22 05:37:37;;;;;;;4.53;3.00;;;3.50;99.90;;;;;;5014067;28;20414;-72
2022/09/22 05:40:03;;;;;;;4.77;3.10;;;3.50;99.90;;;;;;5013650;28;20778;-72
2022/09/22 05:42:29;;;;;;;3.47;2.97;;;3.60;99.90;;;;;;5013670;28;20192;-72
2022/09/22 05:44:55;;;;;;;3.63;2.97;;;3.60;99.90;;;;;;5013883;28;20421;-72
2022/09/22 05:47:20;;;;;;;3.03;2.80;;;3.70;99.90;;;;;;5014154;28;20570;-72
2022/09/22 05:49:45;;;;;;;5.53;2.63;;;3.80;99.90;;;;;;5013937;28;20268;-72
2022/09/22 05:52:11;;;;;;;5.50;3.20;;;3.90;99.90;;;;;;5013349;28;20674;-72
2022/09/22 05:54:36;;;;;;;5.10;3.47;;;4.90;99.90;;;;;;5013897;28;20211;-73
2022/09/22 05:57:02;;;;;;;3.00;2.53;;;6.70;99.90;;;;;;5013759;28;20576;-73
2022/09/22 05:59:28;;;;;;;2.43;2.30;;;8.20;99.90;;;;;;5013908;28;20189;-73
2022/09/22 06:01:53;;;;;;;2.50;2.30;;;10.10;99.90;;;;;;5013378;28;20201;-72
2022/09/22 06:04:19;;;;;;;2.00;1.80;;;11.70;99.90;;;;;;5013385;28;20198;-73
2022/09/22 06:06:45;;;;;;;3.40;2.70;;;11.80;99.90;;;;;;5015738;28;20229;-73
2022/09/22 06:09:13;;;;;;;4.20;2.50;;;13.70;99.90;;;;;;5013548;28;20206;-72
2022/09/22 06:11:39;;;;;;;2.70;2.50;;;14.70;99.90;;;;;;5016221;28;20246;-73
2022/09/22 06:14:05;;;;;;;6.00;2.77;;;15.20;99.90;;;;;;5014611;28;20465;-73
2022/09/22 06:16:31;;;;;;;2.20;2.10;;;15.70;99.90;;;;;;5015192;28;20414;-73
2022/09/22 06:18:57;;;;;;;2.37;2.17;;;16.60;99.90;;;;;;5015173;28;20441;-73
2022/09/22 06:21:24;;;;;;;2.63;2.33;;;17.00;99.90;;;;;;5011929;28;20446;-74
2022/09/22 06:23:50;;;;;;;3.90;2.20;;;16.80;99.90;;;;;;5013247;28;20432;-73
2022/09/22 06:26:16;;;;;;;2.23;2.13;;;16.70;99.90;;;;;;4997837;28;20446;-73
2022/09/22 06:28:42;;;;;;;3.17;2.47;;;17.20;99.90;;;;;;5015937;28;20437;-73
2022/09/22 06:31:08;;;;;;;1.80;1.70;;;17.40;99.90;;;;;;5013461;28;20203;-71
2022/09/22 06:33:34;;;;;;;2.67;2.47;;;17.70;99.90;;;;;;5014653;28;20210;-71
2022/09/22 06:36:00;;;;;;;4.03;2.63;;;18.00;99.90;;;;;;5014705;28;20237;-71
2022/09/22 06:38:26;;;;;;;2.60;2.43;;;18.70;99.90;;;;;;5014660;28;20421;-71
2022/09/22 06:41:00;;;;;;;2.60;2.40;;;19.10;99.90;;;;;;5012565;28;20790;-71
2022/09/22 06:43:26;;;;;;;2.63;2.43;;;19.60;99.90;;;;;;5011126;28;20614;-72
2022/09/22 06:45:51;;;;;;;4.80;2.70;;;20.00;99.90;;;;;;5012705;28;20479;-71
2022/09/22 06:48:19;;;;;;;4.03;2.67;;;20.70;99.90;;;;;;5012525;28;20206;-71
2022/09/22 06:50:57;;;;;;;3.43;3.10;;;20.30;99.90;;;;;;5012307;28;20175;-71
2022/09/22 06:53:23;;;;;;;6.80;3.40;;;20.50;99.90;;;;;;5012355;28;20422;-72
2022/09/22 06:55:49;;;;;;;5.73;3.43;;;20.60;99.90;;;;;;5012321;28;20893;-72
2022/09/22 06:58:15;;;;;;;5.37;3.20;;;20.20;99.90;;;;;;5012251;28;20233;-70
2022/09/22 07:00:42;;;;;;;3.60;2.93;;;20.60;99.90;;;;;;5012187;28;20181;-71
2022/09/22 07:03:25;;;;;;;4.13;3.83;;;20.50;99.90;;;;;;5012024;28;20692;-72
2022/09/22 07:06:00;;;;;;;4.70;3.03;;;20.30;99.90;;;;;;5012168;28;20471;-72
2022/09/22 07:08:31;;;;;;;5.37;4.00;;;19.30;99.90;;;;;;5012057;28;20417;-72
2022/09/22 07:11:00;;;;;;;4.00;3.37;;;18.90;99.90;;;;;;5012010;28;20524;-72
2022/09/22 07:13:30;;;;;;;5.40;4.27;;;18.30;99.90;;;;;;5010365;28;20800;-72
2022/09/22 07:16:03;;;;;;;3.70;3.40;;;17.70;99.90;;;;;;5011995;28;20438;-71
2022/09/22 07:18:29;;;;;;;4.20;3.80;;;17.40;99.90;;;;;;5012283;28;20922;-72
2022/09/22 07:21:10;;;;;;;4.17;3.77;;;17.40;99.90;;;;;;5011707;28;20444;-71
2022/09/22 07:23:36;;;;;;;5.87;4.50;;;17.20;99.90;;;;;;5012204;28;20643;-73
2022/09/22 07:26:03;;;;;;;6.10;4.10;;;17.10;99.90;;;;;;5011690;28;20410;-72
2022/09/22 07:28:31;;;;;;;4.43;4.03;;;17.10;99.90;;;;;;5011966;28;20175;-72
2022/09/22 07:31:05;;;;;;;10.70;4.47;;;17.10;99.90;;;;;;5011507;28;20461;-72
2022/09/22 07:33:32;;;;;;;10.53;5.50;;;17.10;99.90;;;;;;5011762;28;20460;-72
2022/09/22 07:36:07;;;;;;;6.97;4.63;;;17.10;99.90;;;;;;5011791;28;20445;-71
2022/09/22 07:38:35;;;;;;;8.23;5.30;;;17.40;99.90;;;;;;5012171;28;20409;-71
2022/09/22 07:41:02;;;;;;;9.37;4.97;;;17.50;99.90;;;;;;5016472;28;20429;-72
2022/09/22 07:43:28;;;;;;;5.87;5.27;;;17.40;99.90;;;;;;5018230;28;20498;-72
2022/09/22 07:45:56;;;;;;;8.40;5.30;;;17.30;99.90;;;;;;5018227;28;20414;-72
2022/09/22 07:48:42;;;;;;;6.03;5.17;;;17.00;99.90;;;;;;5018179;28;20922;-72
2022/09/22 07:51:20;;;;;;;6.67;5.10;;;17.20;99.90;;;;;;5017883;28;20421;-73
2022/09/22 07:53:49;;;;;;;6.37;4.97;;;17.60;99.90;;;;;;5018072;28;20878;-72
2022/09/22 07:56:19;;;;;;;14.70;4.63;;;17.60;99.90;;;;;;5017774;28;20432;-72
2022/09/22 07:58:48;;;;;;;6.87;5.93;;;18.00;99.90;;;;;;5018319;28;20835;-72
2022/09/22 08:01:14;;;;;;;6.33;4.30;;;18.10;99.90;;;;;;5017719;28;20453;-72
2022/09/22 08:03:40;;;;;;;8.83;3.93;;;18.10;99.90;;;;;;5018380;28;20945;-72
2022/09/22 08:06:10;;;;;;;6.67;3.97;;;18.30;99.90;;;;;;5017894;28;20421;-72
2022/09/22 08:08:44;;;;;;;13.20;4.83;;;18.20;99.90;;;;;;5018267;28;20593;-72
2022/09/22 08:11:13;;;;;;;5.77;4.90;;;18.40;99.90;;;;;;5017828;28;20429;-72
2022/09/22 08:13:41;;;;;;;10.40;5.50;;;18.50;99.90;;;;;;5017885;28;20580;-73
2022/09/22 08:16:06;;;;;;;5.23;4.73;;;18.40;99.90;;;;;;5017811;28;20819;-73
2022/09/22 08:18:35;;;;;;;7.23;3.97;;;18.40;99.90;;;;;;5018207;28;20492;-73
2022/09/22 08:21:01;;;;;;;8.77;4.30;;;18.50;99.90;;;;;;5017929;28;20225;-72
2022/09/22 08:23:28;;;;;;;5.77;4.20;;;18.60;99.90;;;;;;5017881;28;20417;-72
2022/09/22 08:25:54;;;;;;;4.10;3.70;;;18.90;99.90;;;;;;5017963;28;20412;-72
2022/09/22 08:28:19;;;;;;;11.80;3.57;;;19.10;99.90;;;;;;5017881;28;20439;-73
2022/09/22 08:30:46;;;;;;;4.70;3.50;;;19.50;99.90;;;;;;5017711;28;20253;-72
2022/09/22 08:33:12;;;;;;;5.67;4.87;;;19.20;99.90;;;;;;5017477;28;20190;-71
2022/09/22 08:35:38;;;;;;;5.90;4.30;;;19.20;99.90;;;;;;5018022;28;20457;-73
2022/09/22 08:38:03;;;;;;;5.90;3.90;;;19.50;99.90;;;;;;5017815;28;20471;-73
2022/09/22 08:40:30;;;;;;;3.80;3.30;;;19.60;99.90;;;;;;5017772;28;20175;-72
2022/09/22 08:42:58;;;;;;;3.60;3.27;;;19.60;99.90;;;;;;5017707;28;20190;-70
2022/09/22 08:45:32;;;;;;;11.30;3.80;;;19.20;99.90;;;;;;5017613;28;20500;-73
2022/09/22 08:53:47;;;;;;;3.70;3.40;;;19.50;99.90;;;;;;5014307;28;20460;-73
2022/09/22 08:56:33;;;;;;;5.40;4.13;;;19.80;99.90;;;;;;5014442;28;20401;-73
2022/09/22 08:59:17;;;;;;;6.00;3.50;;;20.30;99.90;;;;;;4993429;28;20428;-73
2022/09/22 09:01:50;;;;;;;3.50;3.30;;;20.50;99.90;;;;;;5014426;28;20421;-73
2022/09/22 09:04:40;;;;;;;3.40;3.20;;;20.80;99.90;;;;;;5014196;28;20417;-73
2022/09/22 09:07:24;;;;;;;5.40;3.50;;;20.80;99.90;;;;;;5014660;28;20414;-73
2022/09/22 09:10:20;;;;;;;3.50;3.10;;;20.70;99.90;;;;;;5014510;28;20789;-72
2022/09/22 09:12:45;;;;;;;3.70;2.97;;;20.50;99.90;;;;;;5016132;28;20430;-73
2022/09/22 09:15:16;;;;;;;6.83;2.50;;;20.70;99.90;;;;;;5014658;28;20461;-73
2022/09/22 09:17:45;;;;;;;3.57;2.97;;;20.90;99.90;;;;;;5014697;28;20213;-73
2022/09/22 09:20:29;;;;;;;3.63;3.07;;;20.90;99.90;;;;;;5014044;28;20917;-74
2022/09/22 09:22:56;;;;;;;5.30;3.10;;;20.90;99.90;;;;;;5013966;28;20432;-73
2022/09/22 09:25:40;;;;;;;3.27;2.57;;;20.60;99.90;;;;;;5013784;28;20448;-73
2022/09/22 09:28:21;;;;;;;5.33;2.90;;;20.90;99.90;;;;;;5013949;28;20650;-73
2022/09/22 09:30:50;;;;;;;2.70;2.50;;;21.00;99.90;;;;;;5014017;28;20417;-74
2022/09/22 09:33:25;;;;;;;5.00;2.60;;;20.80;99.90;;;;;;5013446;28;20422;-73
2022/09/22 09:35:52;;;;;;;5.60;2.90;;;20.80;99.90;;;;;;5013783;28;20460;-73
2022/09/22 09:38:34;;;;;;;2.63;2.43;;;21.10;99.90;;;;;;5013722;28;20398;-74
2022/09/22 09:41:21;;;;;;;3.93;2.67;;;21.30;99.90;;;;;;5013591;28;20426;-73
2022/09/22 09:43:49;;;;;;;4.27;3.03;;;21.50;99.90;;;;;;5013738;28;20406;-73
2022/09/22 09:46:42;;;;;;;3.10;2.80;;;21.30;99.90;;;;;;5013534;28;20405;-73
2022/09/22 09:49:17;;;;;;;3.60;2.63;;;21.10;99.90;;;;;;5013720;28;20903;-73
2022/09/22 09:51:56;;;;;;;3.53;2.50;;;21.40;99.90;;;;;;5013534;28;20811;-73
2022/09/22 09:54:22;;;;;;;1.70;1.60;;;21.20;99.90;;;;;;5013397;28;20892;-73
2022/09/22 09:57:07;;;;;;;2.23;2.00;;;21.50;99.90;;;;;;5013513;28;20456;-73
2022/09/22 10:02:34;;;;;;;1.70;1.60;;;21.90;99.90;;;;;;5013246;28;20492;-73
2022/09/22 10:05:06;;;;;;;4.00;2.20;;;22.10;99.90;;;;;;5013604;28;21185;-74
2022/09/22 10:08:02;;;;;;;3.07;1.90;;;22.50;99.90;;;;;;5013433;28;20497;-73
2022/09/22 10:10:28;;;;;;;2.40;1.90;;;22.40;99.90;;;;;;5004665;28;20444;-74
2022/09/22 10:13:02;;;;;;;1.60;1.50;;;22.30;99.90;;;;;;5013153;28;20430;-73
2022/09/22 10:15:27;;;;;;;2.10;2.00;;;22.10;99.90;;;;;;5013058;28;20219;-74
2022/09/22 10:17:53;;;;;;;1.50;1.40;;;22.10;99.90;;;;;;5013038;28;20410;-73
2022/09/22 10:20:30;;;;;;;2.10;2.00;;;22.00;99.90;;;;;;5012967;28;20174;-72
2022/09/22 10:23:18;;;;;;;2.60;2.40;;;21.90;99.90;;;;;;5012675;28;20333;-74
2022/09/22 10:25:43;;;;;;;3.57;1.90;;;22.10;99.90;;;;;;5012940;28;20410;-73
2022/09/22 10:28:14;;;;;;;5.80;1.77;;;22.50;99.90;;;;;;5012814;28;20414;-73
2022/09/22 10:30:41;;;;;;;1.80;1.70;;;22.60;99.90;;;;;;5012809;28;20170;-72
2022/09/22 10:33:15;;;;;;;3.10;1.97;;;22.80;99.90;;;;;;5012361;28;20499;-73
2022/09/22 10:35:54;;;;;;;1.20;1.10;;;23.00;99.90;;;;;;5012808;28;20492;-74
2022/09/22 10:38:22;;;;;;;1.40;0.90;;;23.30;99.90;;;;;;5012680;28;20410;-73
2022/09/22 10:40:55;;;;;;;1.20;1.00;;;23.40;99.90;;;;;;5012884;28;20445;-73
2022/09/22 10:43:36;;;;;;;3.27;1.43;;;23.60;99.90;;;;;;5012847;28;20944;-73
2022/09/22 10:46:20;;;;;;;1.33;1.17;;;23.60;99.90;;;;;;5012581;28;20945;-74
2022/09/22 10:49:20;;;;;;;1.23;1.13;;;23.40;99.90;;;;;;5012489;28;20496;-73
2022/09/22 10:51:46;;;;;;;1.40;1.30;;;23.20;99.90;;;;;;5004865;28;20488;-73
2022/09/22 10:54:20;;;;;;;2.87;1.67;;;23.30;99.80;;;;;;5012118;28;20454;-73
2022/09/22 10:56:52;;;;;;;1.90;1.00;;;23.10;99.90;;;;;;5012536;28;20177;-73
2022/09/22 10:59:45;;;;;;;4.83;1.10;;;23.00;99.90;;;;;;5012403;28;20915;-74
2022/09/22 11:02:14;;;;;;;4.23;0.83;;;23.10;99.90;;;;;;5012118;28;20422;-73
2022/09/22 11:04:51;;;;;;;7.33;1.13;;;22.80;99.30;;;;;;5012334;28;20416;-73
2022/09/22 11:14:32;;;;;;;1.37;0.80;;;22.00;98.40;;;;;;5012225;28;20516;-74
2022/09/22 11:17:22;;;;;;;1.67;0.93;;;21.80;97.30;;;;;;5012738;28;20409;-73
2022/09/22 11:20:18;;;;;;;1.10;0.60;;;21.30;97.10;;;;;;5012034;28;20410;-74
2022/09/22 11:23:11;;;;;;;0.63;0.63;;;21.20;98.40;;;;;;5011916;28;20425;-72
2022/09/22 11:25:49;;;;;;;0.97;0.80;;;20.80;98.10;;;;;;5012053;28;20479;-74
2022/09/22 11:28:27;;;;;;;0.60;0.50;;;21.00;99.90;;;;;;5011965;28;20425;-73
2022/09/22 11:30:56;;;;;;;1.50;0.77;;;20.90;98.10;;;;;;5011695;28;20413;-74
2022/09/22 11:33:50;;;;;;;0.87;0.87;;;20.90;99.30;;;;;;5011791;28;20652;-73
2022/09/22 11:36:30;;;;;;;1.97;0.73;;;21.00;98.50;;;;;;5011799;28;20418;-74
2022/09/22 11:39:25;;;;;;;1.43;0.70;;;21.00;97.60;;;;;;5012033;28;20493;-74
2022/09/22 11:42:09;;;;;;;1.77;0.80;;;20.90;97.60;;;;;;5004368;28;20438;-74
2022/09/22 11:45:31;;;;;;;0.60;0.60;;;21.00;99.90;;;;;;5011720;28;20906;-74
2022/09/22 11:48:10;;;;;;;0.63;0.63;;;20.90;99.20;;;;;;5002944;28;20456;-72
2022/09/22 11:50:51;;;;;;;1.77;0.87;;;20.40;98.60;;;;;;5011975;28;20417;-71
2022/09/22 11:53:36;;;;;;;0.73;0.73;;;20.20;99.20;;;;;;5011807;28;20856;-74
2022/09/22 11:56:43;;;;;;;0.63;0.60;;;20.10;99.70;;;;;;5011559;28;20457;-73
2022/09/22 11:59:49;;;;;;;0.80;0.80;;;20.30;99.90;;;;;;5011580;28;20409;-73
2022/09/22 12:02:25;;;;;;;0.87;0.70;;;20.50;99.40;;;;;;5011526;28;20528;-74
2022/09/22 12:04:59;;;;;;;0.70;0.60;;;20.10;99.30;;;;;;5011496;28;20806;-74
2022/09/22 12:07:36;;;;;;;0.70;0.70;;;19.70;99.00;;;;;;5011642;28;20406;-73
2022/09/22 12:10:11;;;;;;;3.60;0.67;;;19.60;99.60;;;;;;5011585;28;20412;-73
2022/09/22 12:12:37;;;;;;;1.10;1.00;;;19.50;99.40;;;;;;5011531;28;20810;-73
2022/09/22 12:15:20;;;;;;;0.80;0.67;;;19.30;99.70;;;;;;5011415;28;20457;-74
2022/09/22 12:18:00;;;;;;;1.33;0.90;;;19.20;99.00;;;;;;5011658;28;20489;-72
2022/09/22 12:20:35;;;;;;;1.27;0.73;;;19.10;99.70;;;;;;5011422;28;20437;-73
2022/09/22 12:23:10;;;;;;;0.90;0.70;;;19.10;99.30;;;;;;5011271;28;20455;-74
2022/09/22 12:25:53;;;;;;;1.07;0.70;;;18.90;99.80;;;;;;5011643;28;20420;-74
2022/09/22 12:28:24;;;;;;;0.97;0.80;;;18.90;99.70;;;;;;5015082;28;20424;-73
2022/09/22 12:31:05;;;;;;;1.13;1.00;;;19.00;99.40;;;;;;5014863;28;20921;-74
2022/09/22 12:33:33;;;;;;;0.73;0.70;;;18.90;99.90;;;;;;5014935;28;20472;-74
2022/09/22 12:36:01;;;;;;;1.77;0.77;;;18.90;99.90;;;;;;5014877;28;20508;-73
2022/09/22 12:38:29;;;;;;;1.90;0.80;;;18.90;99.90;;;;;;5014882;28;20433;-74
2022/09/22 12:41:01;;;;;;;0.70;0.70;;;18.70;99.90;;;;;;5014810;28;20428;-74
2022/09/22 12:43:27;;;;;;;0.70;0.70;;;18.70;99.70;;;;;;5014728;28;20421;-74
2022/09/22 12:45:55;;;;;;;0.80;0.80;;;18.50;99.30;;;;;;5014799;28;20452;-73
2022/09/22 12:48:28;;;;;;;0.90;0.80;;;18.60;99.50;;;;;;5014530;28;20938;-74
2022/09/22 12:51:15;;;;;;;0.87;0.80;;;18.70;99.10;;;;;;5014706;28;20437;-74
2022/09/22 12:53:40;;;;;;;1.17;1.00;;;18.60;99.20;;;;;;5014270;28;20413;-74
2022/09/22 12:56:43;;;;;;;1.17;1.07;;;18.50;99.00;;;;;;5014533;28;20552;-74
2022/09/22 12:59:37;;;;;;;1.80;0.70;;;18.50;99.80;;;;;;5014271;28;20551;-74
2022/09/22 13:02:17;;;;;;;2.03;0.77;;;18.50;99.80;;;;;;5014173;28;20434;-73
2022/09/22 13:04:54;;;;;;;0.70;0.70;;;18.50;99.90;;;;;;5014194;28;20419;-74
2022/09/22 13:07:40;;;;;;;1.37;1.13;;;18.50;99.90;;;;;;5014349;28;20413;-74
2022/09/22 13:10:21;;;;;;;1.03;0.93;;;18.30;99.90;;;;;;5014155;28;20420;-74
2022/09/22 13:13:02;;;;;;;1.53;1.13;;;18.30;99.90;;;;;;5014378;28;20858;-74
2022/09/22 13:15:42;;;;;;;0.87;0.70;;;18.30;99.90;;;;;;5014009;28;20457;-74
2022/09/22 13:18:36;;;;;;;0.93;0.90;;;18.30;99.90;;;;;;5013986;28;20405;-74
2022/09/22 13:21:24;;;;;;;1.07;0.90;;;18.40;99.90;;;;;;5013788;28;20426;-74
2022/09/22 13:23:49;;;;;;;0.80;0.60;;;18.30;98.90;;;;;;5013961;28;20410;-74
2022/09/22 13:26:18;;;;;;;0.70;0.60;;;18.30;99.50;;;;;;5013660;28;20911;-74
2022/09/22 13:28:43;;;;;;;0.70;0.60;;;18.30;98.60;;;;;;5013675;28;20178;-74
2022/09/22 13:31:13;;;;;;;1.63;1.00;;;18.30;99.80;;;;;;5013268;28;20981;-74
2022/09/22 13:33:39;;;;;;;1.47;1.03;;;18.30;99.90;;;;;;5012235;28;20174;-74
2022/09/22 13:36:11;;;;;;;1.10;1.00;;;18.20;99.90;;;;;;5013636;28;20972;-73
2022/09/22 13:38:40;;;;;;;0.90;0.90;;;18.20;99.90;;;;;;5012948;28;20183;-74
2022/09/22 13:41:17;;;;;;;0.80;0.80;;;18.30;99.90;;;;;;5013361;28;20435;-73
2022/09/22 13:43:47;;;;;;;1.20;0.97;;;18.40;99.90;;;;;;5013705;28;20847;-74
2022/09/22 13:46:38;;;;;;;1.07;1.00;;;18.40;99.90;;;;;;5013447;28;20413;-73
2022/09/22 13:49:06;;;;;;;3.40;1.00;;;18.20;99.90;;;;;;5012275;28;20429;-73
2022/09/22 13:51:33;;;;;;;1.13;0.60;;;18.20;99.90;;;;;;5013550;28;20436;-74
2022/09/22 13:53:58;;;;;;;1.03;0.70;;;18.20;99.90;;;;;;5013398;28;20488;-74
2022/09/22 13:56:25;;;;;;;0.90;0.70;;;18.20;99.90;;;;;;5013355;28;20405;-72
2022/09/22 13:58:54;;;;;;;0.93;0.80;;;18.00;99.90;;;;;;5013592;28;20163;-73
2022/09/22 14:01:22;;;;;;;2.10;0.80;;;17.90;99.90;;;;;;5013041;28;20529;-73
2022/09/22 14:03:49;;;;;;;0.70;0.70;;;17.90;99.90;;;;;;5013492;28;20410;-74
2022/09/22 14:06:27;;;;;;;2.97;0.90;;;18.00;99.90;;;;;;5013184;28;20480;-74
2022/09/22 14:08:53;;;;;;;2.40;1.20;;;18.00;99.90;;;;;;5013363;28;20906;-74
2022/09/22 14:11:27;;;;;;;1.43;0.97;;;18.10;99.90;;;;;;5012944;28;21015;-73
2022/09/22 14:13:52;;;;;;;1.27;1.17;;;18.10;99.90;;;;;;5012951;28;21037;-74
2022/09/22 14:16:44;;;;;;;0.80;0.80;;;18.10;99.90;;;;;;5012945;28;20501;-74
2022/09/22 14:19:33;;;;;;;0.70;0.70;;;18.10;99.90;;;;;;5013229;28;20539;-74
2022/09/22 14:22:02;;;;;;;0.77;0.77;;;18.00;99.90;;;;;;5013039;28;20429;-73
2022/09/22 14:24:29;;;;;;;0.70;0.70;;;18.00;99.90;;;;;;5013044;28;20894;-73
2022/09/22 14:27:01;;;;;;;0.70;0.70;;;17.80;99.70;;;;;;5012853;28;20440;-74
2022/09/22 14:29:28;;;;;;;1.83;0.80;;;17.90;99.90;;;;;;5012904;28;20779;-74
2022/09/22 14:32:15;;;;;;;0.87;0.70;;;17.90;99.80;;;;;;5016638;28;20461;-74
2022/09/22 14:34:46;;;;;;;1.00;0.67;;;17.90;99.50;;;;;;5013131;28;20468;-74
2022/09/22 14:37:23;;;;;;;0.70;0.70;;;17.90;99.60;;;;;;5012687;28;20414;-74
2022/09/22 14:39:51;;;;;;;0.70;0.70;;;17.90;99.90;;;;;;5013328;28;20484;-74
2022/09/22 14:42:23;;;;;;;0.90;0.73;;;17.90;99.40;;;;;;5013936;28;20817;-74
2022/09/22 14:44:50;;;;;;;0.60;0.60;;;17.90;99.10;;;;;;5015175;28;20500;-74
2022/09/22 14:47:22;;;;;;;2.13;0.80;;;17.80;99.10;;;;;;5012441;28;20786;-74
2022/09/22 14:49:48;;;;;;;2.13;0.80;;;17.80;99.80;;;;;;5011688;28;20422;-74
2022/09/22 14:52:28;;;;;;;1.43;0.67;;;17.80;99.90;;;;;;5012468;28;20429;-73
2022/09/22 14:54:58;;;;;;;3.17;0.87;;;17.90;99.20;;;;;;5012414;28;20881;-74
2022/09/22 14:57:25;;;;;;;1.20;0.80;;;17.80;99.90;;;;;;5012108;28;20444;-74
2022/09/22 15:02:52;;;;;;;1.00;1.00;;;17.80;99.90;;;;;;5012557;28;20495;-74